首页
METAR-TAF:

METAR-TAF

机场 :

Resia Pass, 意大利

纬度: 46-50N, 经度: 010-30E, 海拔: 1800米

当前天气观测

该预报发布于44分钟前的00:55 UTC
静风
温度 5°C
湿度 93%
气压 1021 hPa
能见度10公里或以上
1500米以下无云,无积雨云

METAR: LIVE 170055Z 00000KT CAVOK 05/04 Q1021 RMK SKC VIS MIN 9999

时间: 03:39 (01:39 UTC)


TAF: 丢失

超过4000个机场的气象观测和天气预报(METAR&TAF报告)。

可查询的气象台以黄色和红色小点在地图上表示。

将鼠标移到小点上方,可查看气象台名称。

然后点击查看天气观测和预报。

如需切换地图:点击带黑十字的绿色按钮放大地图;点击带横线的绿色按钮缩小地图;或者点击绿色箭头查看邻近地区的地图。


METAR-TAF: